sensor_id;sensor_type;location;lat;lon;timestamp;temperature;humidity
65637;DHT22;52327;42.622;23.316;2023-03-29T00:00:44;-1.55;64.57
65637;DHT22;52327;42.622;23.316;2023-03-29T00:03:09;-1.54;63.97
65637;DHT22;52327;42.622;23.316;2023-03-29T00:05:38;-1.57;64.84
65637;DHT22;52327;42.622;23.316;2023-03-29T00:08:05;-1.54;64.60
65637;DHT22;52327;42.622;23.316;2023-03-29T00:10:32;-1.55;64.35
65637;DHT22;52327;42.622;23.316;2023-03-29T00:12:58;-1.71;66.12
65637;DHT22;52327;42.622;23.316;2023-03-29T00:15:24;-1.65;67.24
65637;DHT22;52327;42.622;23.316;2023-03-29T00:17:50;-1.68;66.49
65637;DHT22;52327;42.622;23.316;2023-03-29T00:20:15;-1.65;65.48
65637;DHT22;52327;42.622;23.316;2023-03-29T00:22:42;-1.67;64.45
65637;DHT22;52327;42.622;23.316;2023-03-29T00:25:09;-1.65;65.02
65637;DHT22;52327;42.622;23.316;2023-03-29T00:27:34;-1.68;63.41
65637;DHT22;52327;42.622;23.316;2023-03-29T00:30:00;-1.68;64.08
65637;DHT22;52327;42.622;23.316;2023-03-29T00:32:28;-1.70;64.50
65637;DHT22;52327;42.622;23.316;2023-03-29T00:34:54;-1.71;64.24
65637;DHT22;52327;42.622;23.316;2023-03-29T00:37:21;-1.64;63.70
65637;DHT22;52327;42.622;23.316;2023-03-29T00:39:46;-1.70;63.14
65637;DHT22;52327;42.622;23.316;2023-03-29T00:42:14;-1.67;62.75
65637;DHT22;52327;42.622;23.316;2023-03-29T00:47:30;-1.64;64.14
65637;DHT22;52327;42.622;23.316;2023-03-29T00:50:01;-1.64;62.38
65637;DHT22;52327;42.622;23.316;2023-03-29T00:52:29;-1.62;61.70
65637;DHT22;52327;42.622;23.316;2023-03-29T00:54:58;-1.68;61.26
65637;DHT22;52327;42.622;23.316;2023-03-29T00:57:26;-1.60;62.31
65637;DHT22;52327;42.622;23.316;2023-03-29T00:59:54;-1.58;61.47
65637;DHT22;52327;42.622;23.316;2023-03-29T01:02:21;-1.61;62.18
65637;DHT22;52327;42.622;23.316;2023-03-29T01:05:02;-1.64;62.70
65637;DHT22;52327;42.622;23.316;2023-03-29T01:07:40;-1.71;63.50
65637;DHT22;52327;42.622;23.316;2023-03-29T01:10:11;-1.74;64.57
65637;DHT22;52327;42.622;23.316;2023-03-29T01:12:42;-1.77;63.60
65637;DHT22;52327;42.622;23.316;2023-03-29T01:15:16;-1.86;64.34
65637;DHT22;52327;42.622;23.316;2023-03-29T01:17:42;-1.89;64.44
65637;DHT22;52327;42.622;23.316;2023-03-29T01:28:20;-1.95;63.97
65637;DHT22;52327;42.622;23.316;2023-03-29T01:30:54;-1.96;63.64
65637;DHT22;52327;42.622;23.316;2023-03-29T01:33:24;-1.99;65.15
65637;DHT22;52327;42.622;23.316;2023-03-29T01:36:00;-1.98;64.75
65637;DHT22;52327;42.622;23.316;2023-03-29T01:38:46;-1.99;64.31
65637;DHT22;52327;42.622;23.316;2023-03-29T01:41:14;-1.93;64.57
65637;DHT22;52327;42.622;23.316;2023-03-29T01:43:41;-2.01;63.67
65637;DHT22;52327;42.622;23.316;2023-03-29T01:49:25;-1.95;64.44
65637;DHT22;52327;42.622;23.316;2023-03-29T01:54:30;-2.03;63.85
65637;DHT22;52327;42.622;23.316;2023-03-29T01:56:57;-1.95;63.14
65637;DHT22;52327;42.622;23.316;2023-03-29T01:59:26;-1.93;62.64
65637;DHT22;52327;42.622;23.316;2023-03-29T02:01:57;-1.89;60.64
65637;DHT22;52327;42.622;23.316;2023-03-29T02:04:30;-1.86;61.18
65637;DHT22;52327;42.622;23.316;2023-03-29T02:06:58;-1.83;60.95
65637;DHT22;52327;42.622;23.316;2023-03-29T02:09:26;-1.88;61.41
65637;DHT22;52327;42.622;23.316;2023-03-29T02:11:55;-1.85;60.30
65637;DHT22;52327;42.622;23.316;2023-03-29T02:14:21;-1.82;60.29
65637;DHT22;52327;42.622;23.316;2023-03-29T02:16:48;-1.79;61.08
65637;DHT22;52327;42.622;23.316;2023-03-29T02:19:14;-1.81;61.72
65637;DHT22;52327;42.622;23.316;2023-03-29T02:24:18;-1.89;62.70
65637;DHT22;52327;42.622;23.316;2023-03-29T02:26:45;-1.93;62.66
65637;DHT22;52327;42.622;23.316;2023-03-29T02:29:11;-1.89;61.23
65637;DHT22;52327;42.622;23.316;2023-03-29T02:32:10;-1.91;62.05
65637;DHT22;52327;42.622;23.316;2023-03-29T02:34:54;-1.92;62.02
65637;DHT22;52327;42.622;23.316;2023-03-29T02:37:24;-1.95;62.76
65637;DHT22;52327;42.622;23.316;2023-03-29T02:39:55;-1.98;62.60
65637;DHT22;52327;42.622;23.316;2023-03-29T02:42:24;-2.01;63.87
65637;DHT22;52327;42.622;23.316;2023-03-29T02:44:52;-2.01;63.73
65637;DHT22;52327;42.622;23.316;2023-03-29T02:47:22;-1.98;62.73
65637;DHT22;52327;42.622;23.316;2023-03-29T02:49:49;-2.05;63.35
65637;DHT22;52327;42.622;23.316;2023-03-29T02:52:18;-2.05;63.78
65637;DHT22;52327;42.622;23.316;2023-03-29T02:54:47;-2.05;63.53
65637;DHT22;52327;42.622;23.316;2023-03-29T02:57:14;-2.05;63.88
65637;DHT22;52327;42.622;23.316;2023-03-29T02:59:40;-2.02;64.71
65637;DHT22;52327;42.622;23.316;2023-03-29T03:02:08;-2.10;64.22
65637;DHT22;52327;42.622;23.316;2023-03-29T03:04:33;-2.07;64.84
65637;DHT22;52327;42.622;23.316;2023-03-29T03:07:00;-2.09;64.90
65637;DHT22;52327;42.622;23.316;2023-03-29T03:09:25;-2.09;65.20
65637;DHT22;52327;42.622;23.316;2023-03-29T03:11:51;-2.13;64.76
65637;DHT22;52327;42.622;23.316;2023-03-29T03:14:17;-2.15;65.66
65637;DHT22;52327;42.622;23.316;2023-03-29T03:16:43;-2.12;64.94
65637;DHT22;52327;42.622;23.316;2023-03-29T03:19:08;-2.15;65.15
65637;DHT22;52327;42.622;23.316;2023-03-29T03:21:35;-2.12;65.03
65637;DHT22;52327;42.622;23.316;2023-03-29T03:24:02;-2.15;65.57
65637;DHT22;52327;42.622;23.316;2023-03-29T03:26:28;-2.22;66.10
65637;DHT22;52327;42.622;23.316;2023-03-29T03:28:54;-2.22;66.46
65637;DHT22;52327;42.622;23.316;2023-03-29T03:31:20;-2.21;66.40
65637;DHT22;52327;42.622;23.316;2023-03-29T03:33:46;-2.22;65.33
65637;DHT22;52327;42.622;23.316;2023-03-29T03:36:12;-2.15;63.74
65637;DHT22;52327;42.622;23.316;2023-03-29T03:38:38;-2.18;64.20
65637;DHT22;52327;42.622;23.316;2023-03-29T03:41:04;-2.16;64.05
65637;DHT22;52327;42.622;23.316;2023-03-29T03:43:31;-2.19;64.10
65637;DHT22;52327;42.622;23.316;2023-03-29T03:45:57;-2.21;64.38
65637;DHT22;52327;42.622;23.316;2023-03-29T03:48:23;-2.18;63.52
65637;DHT22;52327;42.622;23.316;2023-03-29T03:50:51;-2.22;63.53
65637;DHT22;52327;42.622;23.316;2023-03-29T03:53:17;-2.22;63.36
65637;DHT22;52327;42.622;23.316;2023-03-29T03:55:49;-2.22;64.70
65637;DHT22;52327;42.622;23.316;2023-03-29T03:58:16;-2.22;64.27
65637;DHT22;52327;42.622;23.316;2023-03-29T04:00:41;-2.23;62.92
65637;DHT22;52327;42.622;23.316;2023-03-29T04:03:08;-2.22;62.97
65637;DHT22;52327;42.622;23.316;2023-03-29T04:05:38;-2.15;62.78
65637;DHT22;52327;42.622;23.316;2023-03-29T04:08:04;-2.21;62.78
65637;DHT22;52327;42.622;23.316;2023-03-29T04:10:31;-2.18;62.00
65637;DHT22;52327;42.622;23.316;2023-03-29T04:12:58;-2.23;61.64
65637;DHT22;52327;42.622;23.316;2023-03-29T04:15:23;-2.25;60.89
65637;DHT22;52327;42.622;23.316;2023-03-29T04:17:50;-2.23;60.41
65637;DHT22;52327;42.622;23.316;2023-03-29T04:20:16;-2.23;61.03
65637;DHT22;52327;42.622;23.316;2023-03-29T04:22:41;-2.16;60.30
65637;DHT22;52327;42.622;23.316;2023-03-29T04:25:07;-2.18;59.42
65637;DHT22;52327;42.622;23.316;2023-03-29T04:27:32;-2.13;58.71
65637;DHT22;52327;42.622;23.316;2023-03-29T04:29:58;-2.10;58.45
65637;DHT22;52327;42.622;23.316;2023-03-29T04:32:23;-2.12;58.36
65637;DHT22;52327;42.622;23.316;2023-03-29T04:34:49;-2.09;59.05
65637;DHT22;52327;42.622;23.316;2023-03-29T04:37:14;-2.03;59.17
65637;DHT22;52327;42.622;23.316;2023-03-29T04:39:40;-2.02;59.32
65637;DHT22;52327;42.622;23.316;2023-03-29T04:42:06;-1.99;58.91
65637;DHT22;52327;42.622;23.316;2023-03-29T04:44:32;-2.02;60.43
65637;DHT22;52327;42.622;23.316;2023-03-29T04:46:59;-1.98;58.71
65637;DHT22;52327;42.622;23.316;2023-03-29T04:49:25;-1.91;57.91
65637;DHT22;52327;42.622;23.316;2023-03-29T04:51:50;-1.89;58.94
65637;DHT22;52327;42.622;23.316;2023-03-29T04:54:17;-1.86;58.31
65637;DHT22;52327;42.622;23.316;2023-03-29T04:56:42;-1.86;59.36
65637;DHT22;52327;42.622;23.316;2023-03-29T04:59:08;-1.77;59.53
65637;DHT22;52327;42.622;23.316;2023-03-29T05:01:34;-1.81;58.77
65637;DHT22;52327;42.622;23.316;2023-03-29T05:03:59;-1.74;58.68
65637;DHT22;52327;42.622;23.316;2023-03-29T05:06:25;-1.74;57.83
65637;DHT22;52327;42.622;23.316;2023-03-29T05:08:50;-1.77;58.54
65637;DHT22;52327;42.622;23.316;2023-03-29T05:11:16;-1.81;58.72
65637;DHT22;52327;42.622;23.316;2023-03-29T05:13:43;-1.71;59.03
65637;DHT22;52327;42.622;23.316;2023-03-29T05:16:09;-1.72;57.31
65637;DHT22;52327;42.622;23.316;2023-03-29T05:18:35;-1.72;56.99
65637;DHT22;52327;42.622;23.316;2023-03-29T05:21:01;-1.67;57.62
65637;DHT22;52327;42.622;23.316;2023-03-29T05:23:27;-1.68;57.70
65637;DHT22;52327;42.622;23.316;2023-03-29T05:25:53;-1.77;58.50
65637;DHT22;52327;42.622;23.316;2023-03-29T05:28:19;-1.79;58.84
65637;DHT22;52327;42.622;23.316;2023-03-29T05:30:45;-1.70;59.40
65637;DHT22;52327;42.622;23.316;2023-03-29T05:33:10;-1.65;59.54
65637;DHT22;52327;42.622;23.316;2023-03-29T05:35:36;-1.52;59.56
65637;DHT22;52327;42.622;23.316;2023-03-29T05:38:03;-1.50;59.40
65637;DHT22;52327;42.622;23.316;2023-03-29T05:40:29;-1.50;58.89
65637;DHT22;52327;42.622;23.316;2023-03-29T05:42:56;-1.41;58.45
65637;DHT22;52327;42.622;23.316;2023-03-29T05:45:22;-1.30;57.65
65637;DHT22;52327;42.622;23.316;2023-03-29T05:47:48;-1.17;58.08
65637;DHT22;52327;42.622;23.316;2023-03-29T05:50:14;-1.21;58.16
65637;DHT22;52327;42.622;23.316;2023-03-29T05:52:40;-1.13;58.14
65637;DHT22;52327;42.622;23.316;2023-03-29T05:55:06;-1.14;58.04
65637;DHT22;52327;42.622;23.316;2023-03-29T05:57:35;-1.14;58.48
65637;DHT22;52327;42.622;23.316;2023-03-29T06:00:03;-1.11;58.38
65637;DHT22;52327;42.622;23.316;2023-03-29T06:02:35;-1.11;58.94
65637;DHT22;52327;42.622;23.316;2023-03-29T06:05:01;-1.01;59.26
65637;DHT22;52327;42.622;23.316;2023-03-29T06:07:27;-0.89;57.91
65637;DHT22;52327;42.622;23.316;2023-03-29T06:09:52;-0.90;56.60
65637;DHT22;52327;42.622;23.316;2023-03-29T06:12:18;-0.75;55.66
65637;DHT22;52327;42.622;23.316;2023-03-29T06:14:45;-0.64;55.19
65637;DHT22;52327;42.622;23.316;2023-03-29T06:17:10;-0.99;54.90
65637;DHT22;52327;42.622;23.316;2023-03-29T06:19:36;-0.93;54.75
65637;DHT22;52327;42.622;23.316;2023-03-29T06:22:01;-1.06;56.06
65637;DHT22;52327;42.622;23.316;2023-03-29T06:24:27;-0.86;56.52
65637;DHT22;52327;42.622;23.316;2023-03-29T06:26:52;-0.83;56.18
65637;DHT22;52327;42.622;23.316;2023-03-29T06:29:18;-0.68;56.73
65637;DHT22;52327;42.622;23.316;2023-03-29T06:31:43;-0.79;56.90
65637;DHT22;52327;42.622;23.316;2023-03-29T06:34:09;-0.61;55.45
65637;DHT22;52327;42.622;23.316;2023-03-29T06:36:34;-0.44;55.47
65637;DHT22;52327;42.622;23.316;2023-03-29T06:39:00;-0.44;55.13
65637;DHT22;52327;42.622;23.316;2023-03-29T06:41:28;-0.32;54.15
65637;DHT22;52327;42.622;23.316;2023-03-29T06:43:53;-0.22;53.77
65637;DHT22;52327;42.622;23.316;2023-03-29T06:46:19;-0.32;53.74
65637;DHT22;52327;42.622;23.316;2023-03-29T06:48:44;-0.14;54.67
65637;DHT22;52327;42.622;23.316;2023-03-29T06:51:10;-0.19;53.39
65637;DHT22;52327;42.622;23.316;2023-03-29T06:53:35;-0.11;53.97
65637;DHT22;52327;42.622;23.316;2023-03-29T06:56:01;-0.19;53.97
65637;DHT22;52327;42.622;23.316;2023-03-29T06:58:33;-0.06;54.34
65637;DHT22;52327;42.622;23.316;2023-03-29T07:00:59;-0.08;54.19
65637;DHT22;52327;42.622;23.316;2023-03-29T07:03:26;-0.35;52.64
65637;DHT22;52327;42.622;23.316;2023-03-29T07:05:52;-0.15;53.38
65637;DHT22;52327;42.622;23.316;2023-03-29T07:08:25;-0.07;52.72
65637;DHT22;52327;42.622;23.316;2023-03-29T07:10:56;0.10;53.39
65637;DHT22;52327;42.622;23.316;2023-03-29T07:13:22;0.16;52.84
65637;DHT22;52327;42.622;23.316;2023-03-29T07:15:48;0.17;51.75
65637;DHT22;52327;42.622;23.316;2023-03-29T07:18:14;0.17;51.56
65637;DHT22;52327;42.622;23.316;2023-03-29T07:20:39;-0.01;51.34
65637;DHT22;52327;42.622;23.316;2023-03-29T07:23:06;-0.06;51.86
65637;DHT22;52327;42.622;23.316;2023-03-29T07:25:34;0.21;51.88
65637;DHT22;52327;42.622;23.316;2023-03-29T07:28:00;0.36;50.94
65637;DHT22;52327;42.622;23.316;2023-03-29T07:30:27;0.40;49.96
65637;DHT22;52327;42.622;23.316;2023-03-29T07:32:54;0.60;49.30
65637;DHT22;52327;42.622;23.316;2023-03-29T07:35:21;0.79;50.99
65637;DHT22;52327;42.622;23.316;2023-03-29T07:37:47;0.91;49.45
65637;DHT22;52327;42.622;23.316;2023-03-29T07:40:15;0.48;49.10
65637;DHT22;52327;42.622;23.316;2023-03-29T07:42:46;0.47;51.51
65637;DHT22;52327;42.622;23.316;2023-03-29T07:45:13;0.47;49.67
65637;DHT22;52327;42.622;23.316;2023-03-29T07:47:41;0.34;49.44
65637;DHT22;52327;42.622;23.316;2023-03-29T07:50:08;0.37;48.50
65637;DHT22;52327;42.622;23.316;2023-03-29T07:52:35;0.45;49.36
65637;DHT22;52327;42.622;23.316;2023-03-29T07:55:00;0.54;49.48
65637;DHT22;52327;42.622;23.316;2023-03-29T07:57:26;0.68;48.54
65637;DHT22;52327;42.622;23.316;2023-03-29T07:59:52;0.53;48.57
65637;DHT22;52327;42.622;23.316;2023-03-29T08:02:19;0.76;49.49
65637;DHT22;52327;42.622;23.316;2023-03-29T08:04:45;0.71;45.86
65637;DHT22;52327;42.622;23.316;2023-03-29T08:07:11;0.69;47.84
65637;DHT22;52327;42.622;23.316;2023-03-29T08:09:37;0.72;45.59
65637;DHT22;52327;42.622;23.316;2023-03-29T08:12:03;0.76;47.00
65637;DHT22;52327;42.622;23.316;2023-03-29T08:14:28;0.98;47.68
65637;DHT22;52327;42.622;23.316;2023-03-29T08:16:54;1.06;45.85
65637;DHT22;52327;42.622;23.316;2023-03-29T08:19:20;1.12;46.93
65637;DHT22;52327;42.622;23.316;2023-03-29T08:21:46;1.05;46.82
65637;DHT22;52327;42.622;23.316;2023-03-29T08:24:12;1.10;46.78
65637;DHT22;52327;42.622;23.316;2023-03-29T08:26:37;1.19;46.71
65637;DHT22;52327;42.622;23.316;2023-03-29T08:29:03;1.27;47.72
65637;DHT22;52327;42.622;23.316;2023-03-29T08:31:28;1.37;47.24
65637;DHT22;52327;42.622;23.316;2023-03-29T08:33:54;1.29;44.18
65637;DHT22;52327;42.622;23.316;2023-03-29T08:36:20;1.26;43.33
65637;DHT22;52327;42.622;23.316;2023-03-29T08:38:46;1.16;44.64
65637;DHT22;52327;42.622;23.316;2023-03-29T08:41:52;1.23;43.79
65637;DHT22;52327;42.622;23.316;2023-03-29T08:47:19;1.56;43.91
65637;DHT22;52327;42.622;23.316;2023-03-29T08:49:49;1.64;43.69
65637;DHT22;52327;42.622;23.316;2023-03-29T08:52:35;1.43;43.26
65637;DHT22;52327;42.622;23.316;2023-03-29T08:55:05;1.35;43.24
65637;DHT22;52327;42.622;23.316;2023-03-29T08:57:42;1.36;42.89
65637;DHT22;52327;42.622;23.316;2023-03-29T09:00:40;1.47;43.91
65637;DHT22;52327;42.622;23.316;2023-03-29T09:03:25;1.56;43.92
65637;DHT22;52327;42.622;23.316;2023-03-29T09:05:57;1.61;45.33
65637;DHT22;52327;42.622;23.316;2023-03-29T09:08:23;1.68;43.17
65637;DHT22;52327;42.622;23.316;2023-03-29T09:17:05;2.04;43.37
65637;DHT22;52327;42.622;23.316;2023-03-29T09:19:36;2.08;43.67
65637;DHT22;52327;42.622;23.316;2023-03-29T09:25:24;2.21;41.15
65637;DHT22;52327;42.622;23.316;2023-03-29T09:28:03;2.14;39.24
65637;DHT22;52327;42.622;23.316;2023-03-29T09:30:33;2.26;41.33
65637;DHT22;52327;42.622;23.316;2023-03-29T09:38:13;2.39;41.26
65637;DHT22;52327;42.622;23.316;2023-03-29T09:40:54;2.48;41.32
65637;DHT22;52327;42.622;23.316;2023-03-29T09:43:41;2.62;39.31
65637;DHT22;52327;42.622;23.316;2023-03-29T09:46:18;2.48;40.91
65637;DHT22;52327;42.622;23.316;2023-03-29T09:48:44;2.56;41.51
65637;DHT22;52327;42.622;23.316;2023-03-29T09:51:11;2.52;40.28
65637;DHT22;52327;42.622;23.316;2023-03-29T09:53:37;2.48;38.33
65637;DHT22;52327;42.622;23.316;2023-03-29T09:56:03;2.54;39.27
65637;DHT22;52327;42.622;23.316;2023-03-29T09:58:31;2.66;39.05
65637;DHT22;52327;42.622;23.316;2023-03-29T10:00:58;2.84;37.58
65637;DHT22;52327;42.622;23.316;2023-03-29T10:03:26;2.86;36.54
65637;DHT22;52327;42.622;23.316;2023-03-29T10:05:55;2.90;33.85
65637;DHT22;52327;42.622;23.316;2023-03-29T10:08:25;2.93;34.79
65637;DHT22;52327;42.622;23.316;2023-03-29T10:10:52;2.86;35.87
65637;DHT22;52327;42.622;23.316;2023-03-29T10:13:26;3.01;35.99
65637;DHT22;52327;42.622;23.316;2023-03-29T10:16:04;3.08;36.03
65637;DHT22;52327;42.622;23.316;2023-03-29T10:18:31;3.17;36.03
65637;DHT22;52327;42.622;23.316;2023-03-29T10:21:02;3.32;34.79
65637;DHT22;52327;42.622;23.316;2023-03-29T10:23:31;3.32;34.85
65637;DHT22;52327;42.622;23.316;2023-03-29T10:25:56;3.35;34.75
65637;DHT22;52327;42.622;23.316;2023-03-29T10:28:22;3.42;35.07
65637;DHT22;52327;42.622;23.316;2023-03-29T10:30:56;3.52;34.18
65637;DHT22;52327;42.622;23.316;2023-03-29T10:33:23;3.64;35.02
65637;DHT22;52327;42.622;23.316;2023-03-29T10:35:51;3.46;32.32
65637;DHT22;52327;42.622;23.316;2023-03-29T10:38:18;3.44;33.50
65637;DHT22;52327;42.622;23.316;2023-03-29T10:40:46;3.46;32.83
65637;DHT22;52327;42.622;23.316;2023-03-29T10:45:39;3.48;32.42
65637;DHT22;52327;42.622;23.316;2023-03-29T10:48:08;3.54;32.81
65637;DHT22;52327;42.622;23.316;2023-03-29T10:50:36;3.56;32.60
65637;DHT22;52327;42.622;23.316;2023-03-29T10:53:20;3.61;32.54
65637;DHT22;52327;42.622;23.316;2023-03-29T11:01:15;3.82;33.59
65637;DHT22;52327;42.622;23.316;2023-03-29T11:06:32;3.87;33.13
65637;DHT22;52327;42.622;23.316;2023-03-29T11:09:04;4.00;34.83
65637;DHT22;52327;42.622;23.316;2023-03-29T11:14:40;4.36;32.21
65637;DHT22;52327;42.622;23.316;2023-03-29T11:20:08;4.44;32.91
65637;DHT22;52327;42.622;23.316;2023-03-29T11:25:24;4.51;32.53
65637;DHT22;52327;42.622;23.316;2023-03-29T11:28:53;4.60;32.36
65637;DHT22;52327;42.622;23.316;2023-03-29T11:37:12;4.65;32.36
65637;DHT22;52327;42.622;23.316;2023-03-29T11:39:18;4.54;32.27
65637;DHT22;52327;42.622;23.316;2023-03-29T11:41:52;4.64;32.83
65637;DHT22;52327;42.622;23.316;2023-03-29T11:49:25;4.67;29.22
65637;DHT22;52327;42.622;23.316;2023-03-29T11:52:06;4.65;29.01
65637;DHT22;52327;42.622;23.316;2023-03-29T11:54:45;4.74;29.73
65637;DHT22;52327;42.622;23.316;2023-03-29T11:59:55;4.91;30.41
65637;DHT22;52327;42.622;23.316;2023-03-29T12:05:08;5.63;29.02
65637;DHT22;52327;42.622;23.316;2023-03-29T12:07:41;5.81;29.95
65637;DHT22;52327;42.622;23.316;2023-03-29T12:10:16;5.50;31.11
65637;DHT22;52327;42.622;23.316;2023-03-29T12:12:52;5.83;32.25
65637;DHT22;52327;42.622;23.316;2023-03-29T12:15:23;6.01;31.18
65637;DHT22;52327;42.622;23.316;2023-03-29T12:17:53;5.94;30.63
65637;DHT22;52327;42.622;23.316;2023-03-29T12:20:25;6.05;30.13
65637;DHT22;52327;42.622;23.316;2023-03-29T12:22:53;8.27;26.13
65637;DHT22;52327;42.622;23.316;2023-03-29T12:28:22;12.52;21.75
65637;DHT22;52327;42.622;23.316;2023-03-29T12:33:54;12.43;20.27
65637;DHT22;52327;42.622;23.316;2023-03-29T12:39:13;14.09;21.29
65637;DHT22;52327;42.622;23.316;2023-03-29T12:41:39;14.87;18.91
65637;DHT22;52327;42.622;23.316;2023-03-29T12:44:14;13.72;20.26
65637;DHT22;52327;42.622;23.316;2023-03-29T12:46:40;13.85;20.81
65637;DHT22;52327;42.622;23.316;2023-03-29T12:49:13;14.00;18.87
65637;DHT22;52327;42.622;23.316;2023-03-29T12:51:43;14.29;18.93
65637;DHT22;52327;42.622;23.316;2023-03-29T12:54:15;14.64;18.84
65637;DHT22;52327;42.622;23.316;2023-03-29T12:57:17;14.23;20.05
65637;DHT22;52327;42.622;23.316;2023-03-29T12:59:47;14.02;20.28
65637;DHT22;52327;42.622;23.316;2023-03-29T13:07:42;14.88;18.04
65637;DHT22;52327;42.622;23.316;2023-03-29T13:10:29;15.25;18.32
65637;DHT22;52327;42.622;23.316;2023-03-29T13:13:07;15.05;18.54
65637;DHT22;52327;42.622;23.316;2023-03-29T13:15:35;14.82;18.29
65637;DHT22;52327;42.622;23.316;2023-03-29T13:23:50;13.95;19.03
65637;DHT22;52327;42.622;23.316;2023-03-29T13:40:00;14.06;18.14
65637;DHT22;52327;42.622;23.316;2023-03-29T13:45:26;14.92;17.75
65637;DHT22;52327;42.622;23.316;2023-03-29T13:50:39;14.99;16.54
65637;DHT22;52327;42.622;23.316;2023-03-29T13:56:05;15.47;16.46
65637;DHT22;52327;42.622;23.316;2023-03-29T13:59:04;15.57;16.56
65637;DHT22;52327;42.622;23.316;2023-03-29T14:02:00;15.60;17.49
65637;DHT22;52327;42.622;23.316;2023-03-29T14:04:30;15.46;16.65
65637;DHT22;52327;42.622;23.316;2023-03-29T14:06:57;16.24;16.51
65637;DHT22;52327;42.622;23.316;2023-03-29T14:09:29;15.18;16.05
65637;DHT22;52327;42.622;23.316;2023-03-29T14:11:57;14.72;16.34
65637;DHT22;52327;42.622;23.316;2023-03-29T14:14:25;13.70;17.84
65637;DHT22;52327;42.622;23.316;2023-03-29T14:16:53;14.95;17.68
65637;DHT22;52327;42.622;23.316;2023-03-29T14:19:35;15.40;17.71
65637;DHT22;52327;42.622;23.316;2023-03-29T14:22:07;15.87;18.37
65637;DHT22;52327;42.622;23.316;2023-03-29T14:24:37;16.82;17.24
65637;DHT22;52327;42.622;23.316;2023-03-29T14:27:04;16.10;17.85
65637;DHT22;52327;42.622;23.316;2023-03-29T14:29:33;15.25;17.08
65637;DHT22;52327;42.622;23.316;2023-03-29T14:32:10;14.70;18.31
65637;DHT22;52327;42.622;23.316;2023-03-29T14:34:37;14.44;18.56
65637;DHT22;52327;42.622;23.316;2023-03-29T14:37:03;14.48;18.51
65637;DHT22;52327;42.622;23.316;2023-03-29T14:39:32;15.36;17.51
65637;DHT22;52327;42.622;23.316;2023-03-29T14:41:58;15.08;16.92
65637;DHT22;52327;42.622;23.316;2023-03-29T14:44:26;14.89;18.31
65637;DHT22;52327;42.622;23.316;2023-03-29T14:46:53;14.67;18.42
65637;DHT22;52327;42.622;23.316;2023-03-29T14:49:21;15.28;19.49
65637;DHT22;52327;42.622;23.316;2023-03-29T14:51:47;13.72;19.42
65637;DHT22;52327;42.622;23.316;2023-03-29T14:54:28;11.36;21.68
65637;DHT22;52327;42.622;23.316;2023-03-29T14:56:54;10.48;23.76
65637;DHT22;52327;42.622;23.316;2023-03-29T14:59:27;11.31;22.95
65637;DHT22;52327;42.622;23.316;2023-03-29T15:01:53;11.70;22.86
65637;DHT22;52327;42.622;23.316;2023-03-29T15:04:19;12.80;22.48
65637;DHT22;52327;42.622;23.316;2023-03-29T15:06:45;11.00;23.11
65637;DHT22;52327;42.622;23.316;2023-03-29T15:09:29;9.05;25.72
65637;DHT22;52327;42.622;23.316;2023-03-29T15:11:57;8.56;27.58
65637;DHT22;52327;42.622;23.316;2023-03-29T15:14:25;8.06;28.65
65637;DHT22;52327;42.622;23.316;2023-03-29T15:16:57;7.61;27.00
65637;DHT22;52327;42.622;23.316;2023-03-29T15:19:25;7.38;27.25
65637;DHT22;52327;42.622;23.316;2023-03-29T15:21:51;7.08;27.87
65637;DHT22;52327;42.622;23.316;2023-03-29T15:24:27;6.90;28.63
65637;DHT22;52327;42.622;23.316;2023-03-29T15:27:09;6.73;29.14
65637;DHT22;52327;42.622;23.316;2023-03-29T15:29:37;6.65;30.05
65637;DHT22;52327;42.622;23.316;2023-03-29T15:32:06;6.62;29.92
65637;DHT22;52327;42.622;23.316;2023-03-29T15:34:32;6.65;31.06
65637;DHT22;52327;42.622;23.316;2023-03-29T15:36:59;6.50;29.92
65637;DHT22;52327;42.622;23.316;2023-03-29T15:39:26;6.26;30.21
65637;DHT22;52327;42.622;23.316;2023-03-29T15:41:54;6.12;31.57
65637;DHT22;52327;42.622;23.316;2023-03-29T15:44:31;5.98;29.99
65637;DHT22;52327;42.622;23.316;2023-03-29T15:46:56;5.83;31.07
65637;DHT22;52327;42.622;23.316;2023-03-29T15:49:24;5.74;32.23
65637;DHT22;52327;42.622;23.316;2023-03-29T15:51:50;5.69;32.37
65637;DHT22;52327;42.622;23.316;2023-03-29T15:54:21;5.61;31.87
65637;DHT22;52327;42.622;23.316;2023-03-29T15:56:58;5.51;32.45
65637;DHT22;52327;42.622;23.316;2023-03-29T15:59:25;5.59;32.14
65637;DHT22;52327;42.622;23.316;2023-03-29T16:01:51;5.57;33.36
65637;DHT22;52327;42.622;23.316;2023-03-29T16:04:20;5.54;32.61
65637;DHT22;52327;42.622;23.316;2023-03-29T16:06:48;5.54;34.05
65637;DHT22;52327;42.622;23.316;2023-03-29T16:09:14;5.49;32.90
65637;DHT22;52327;42.622;23.316;2023-03-29T16:11:41;5.42;32.63
65637;DHT22;52327;42.622;23.316;2023-03-29T16:16:42;5.30;33.23
65637;DHT22;52327;42.622;23.316;2023-03-29T16:19:07;5.32;33.73
65637;DHT22;52327;42.622;23.316;2023-03-29T16:21:33;5.40;34.87
65637;DHT22;52327;42.622;23.316;2023-03-29T16:23:59;5.35;34.92
65637;DHT22;52327;42.622;23.316;2023-03-29T16:26:25;5.22;35.24
65637;DHT22;52327;42.622;23.316;2023-03-29T16:28:50;5.15;34.74
65637;DHT22;52327;42.622;23.316;2023-03-29T16:31:16;5.18;36.22
65637;DHT22;52327;42.622;23.316;2023-03-29T16:33:42;5.22;35.20
65637;DHT22;52327;42.622;23.316;2023-03-29T16:36:08;5.32;34.58
65637;DHT22;52327;42.622;23.316;2023-03-29T16:38:34;5.26;34.20
65637;DHT22;52327;42.622;23.316;2023-03-29T16:40:59;5.19;34.65
65637;DHT22;52327;42.622;23.316;2023-03-29T16:43:25;5.19;35.68
65637;DHT22;52327;42.622;23.316;2023-03-29T16:45:51;5.20;37.18
65637;DHT22;52327;42.622;23.316;2023-03-29T16:48:18;5.25;35.07
65637;DHT22;52327;42.622;23.316;2023-03-29T16:50:45;5.23;35.45
65637;DHT22;52327;42.622;23.316;2023-03-29T16:53:14;5.09;35.31
65637;DHT22;52327;42.622;23.316;2023-03-29T16:55:40;5.05;35.97
65637;DHT22;52327;42.622;23.316;2023-03-29T16:58:05;4.87;36.15
65637;DHT22;52327;42.622;23.316;2023-03-29T17:00:31;4.82;35.94
65637;DHT22;52327;42.622;23.316;2023-03-29T17:02:57;4.75;36.50
65637;DHT22;52327;42.622;23.316;2023-03-29T17:05:26;4.79;36.98
65637;DHT22;52327;42.622;23.316;2023-03-29T17:07:51;4.81;36.06
65637;DHT22;52327;42.622;23.316;2023-03-29T17:10:17;4.81;35.74
65637;DHT22;52327;42.622;23.316;2023-03-29T17:12:43;4.82;36.54
65637;DHT22;52327;42.622;23.316;2023-03-29T17:15:09;4.77;36.58
65637;DHT22;52327;42.622;23.316;2023-03-29T17:17:35;4.67;35.80
65637;DHT22;52327;42.622;23.316;2023-03-29T17:20:03;4.62;36.09
65637;DHT22;52327;42.622;23.316;2023-03-29T17:22:30;4.60;35.80
65637;DHT22;52327;42.622;23.316;2023-03-29T17:24:55;4.58;35.71
65637;DHT22;52327;42.622;23.316;2023-03-29T17:27:21;4.67;36.82
65637;DHT22;52327;42.622;23.316;2023-03-29T17:29:46;4.62;35.95